Terminal Aerodrome Forecast
Issued by NWS Sterling, VA

Current Version | Previous Version | Text Only | Print | Product List | Glossary Off
Versions: 1 2 3 4 5 6 7 8 9 10 11 12 13 14 15 16 17

000
FTUS41 KLWX 051053 AAA
TAFMRB
TAF AMD
KMRB 051053Z 0511/0606 VRB03KT 4SM BR OVC030
     FM051400 09004KT P6SM BKN040
     FM051800 13004KT P6SM BKN050
     FM052300 12005KT P6SM SCT250=

USA.gov is the U.S. government's official web portal to all federal, state and local government web resources and services.